Flight Track Log - Related Links

Times and Time Zones

All times are in EDT time to prevent confusion due to time zone crossing. See the UAL3773 flight status page for this flight to view local times or setup timezone preferences in your user account.

Time Position Orientation Groundspeed Altitude Reporting Facility
EDT Latitude Longitude Course Direction KTS MPH feet Rate Location/Type
Thu 10:44:41 AM 35.1933 -80.9336 72° East 161 185 1,400  Level FAA TRACON SMA TRACON (SMA)
Thu 10:45:01 AM 35.1764 -80.9322 176° South 157 181 2,300 1,950 Climbing FAA TRACON SMA TRACON (SMA)
Thu 10:45:21 AM 35.1608 -80.9300 173° South 193 222 2,700 1,317 Climbing FAA TRACON SMA TRACON (SMA)
Thu 10:45:42 AM 35.1411 -80.9156 149° Southeast 230 265 3,200 1,953 Climbing FAA TRACON SMA TRACON (SMA)
Thu 10:46:04 AM 35.1219 -80.8942 138° Southeast 246 283 4,100 2,286 Climbing FAA TRACON SMA TRACON (SMA)
Thu 10:46:24 AM 35.1097 -80.8739 126° Southeast 256 295 4,800 2,757 Climbing FAA TRACON SMA TRACON (SMA)
Thu 10:46:41 AM 35.1081 -80.8464 94° East 256 295 5,800 2,919 Climbing FAA TRACON SMA TRACON (SMA)
Thu 10:47:01 AM 35.1172 -80.8211 66° East 270 311 6,600 2,341 Climbing FAA TRACON SMA TRACON (SMA)
Thu 10:47:22 AM 35.1319 -80.7978 52° Northeast 281 323 7,400 2,850 Climbing FAA TRACON SMA TRACON (SMA)
Thu 10:47:41 AM 35.1506 -80.7686 52° Northeast 284 327 8,500 2,769 Climbing FAA TRACON SMA TRACON (SMA)
Thu 10:48:00 AM 35.2491 -80.5316 30° Northeast  Level FlightAware Approximate
Thu 10:48:01 AM 35.1661 -80.7447 51° Northeast 290 334 9,200  Level FAA TRACON SMA TRACON (SMA)
Thu 10:48:21 AM 35.1819 -80.7203 52° Northeast 296 341 10,000 2,550 Climbing FAA TRACON SMA TRACON (SMA)
Thu 10:48:41 AM 35.2017 -80.6892 52° Northeast 301 346 10,900 1,902 Climbing FAA TRACON SMA TRACON (SMA)
Thu 10:49:00 AM 35.3375 -80.4510 72° East  Level FlightAware Approximate
Thu 10:49:02 AM 35.2181 -80.6631 52° Northeast 311 358 11,300  Level FAA TRACON SMA TRACON (SMA)
Thu 10:49:21 AM 35.2364 -80.6347 52° Northeast 341 392 11,800 1,692 Climbing FAA TRACON SMA TRACON (SMA)
Thu 10:49:41 AM 35.2594 -80.5986 52° Northeast 353 406 12,400 1,950 Climbing FAA TRACON SMA TRACON (SMA)
Thu 10:50:01 AM 35.2778 -80.5692 53° Northeast 355 409 13,100 1,800 Climbing FAA TRACON SMA TRACON (SMA)
Thu 10:50:21 AM 35.2969 -80.5392 52° Northeast 359 413 13,600 1,902 Climbing FAA TRACON SMA TRACON (SMA)
Thu 10:50:42 AM 35.3208 -80.5008 53° Northeast 366 421 14,400 2,100 Climbing FAA TRACON SMA TRACON (SMA)
Thu 10:51:01 AM 35.3361 -80.4653 62° Northeast 379 436 15,000 2,100 Climbing FAA TRACON SMA TRACON (SMA)
Thu 10:51:22 AM 35.3508 -80.4186 69° East 382 440 15,800 2,100 Climbing FAA TRACON SMA TRACON (SMA)
Thu 10:51:41 AM 35.3625 -80.3806 69° East 386 444 16,400 1,692 Climbing FAA TRACON SMA TRACON (SMA)
Thu 10:52:01 AM 35.3742 -80.3422 70° East 389 448 16,900 1,610 Climbing FAA TRACON SMA TRACON (SMA)
Thu 10:52:22 AM 35.3861 -80.3033 69° East 393 452 17,500 1,650 Climbing FAA TRACON SMA TRACON (SMA)
Thu 10:52:41 AM 35.4008 -80.2539 70° East 399 459 18,000 1,385 Climbing FAA TRACON SMA TRACON (SMA)
Thu 10:53:01 AM 35.4128 -80.2142 70° East 402 463 18,400 1,350 Climbing FAA TRACON SMA TRACON (SMA)
Thu 10:53:21 AM 35.4256 -80.1736 69° East 409 471 18,900 2,100 Climbing FAA TRACON SMA TRACON (SMA)
Thu 10:53:41 AM 35.4403 -80.1214 71° East 415 478 19,800 2,341 Climbing FAA TRACON SMA TRACON (SMA)
Thu 10:54:02 AM 35.4511 -80.0797 72° East 416 479 20,500 1,950 Climbing FAA TRACON SMA TRACON (SMA)
Thu 10:54:21 AM 35.4617 -80.0383 73° East 415 478 21,100 1,800 Climbing FAA TRACON SMA TRACON (SMA)
Thu 10:54:42 AM 35.4753 -79.9867 72° East 415 478 21,700 1,800 Climbing FAA TRACON SMA TRACON (SMA)
Thu 10:55:01 AM 35.4858 -79.9444 73° East 416 479 22,300 1,385 Climbing FAA TRACON SMA TRACON (SMA)
Thu 10:55:21 AM 35.4975 -79.9067 69° East 418 481 22,600 1,317 Climbing FAA TRACON SMA TRACON (SMA)
Thu 10:55:42 AM 35.5069 -79.8597 76° East 421 484 23,200 1,579 Climbing FAA TRACON SMA TRACON (SMA)
Thu 10:55:59 AM 35.5136 -79.8253 77° East 407 468 23,600 1,325 Climbing Washington Center
Thu 10:56:59 AM 35.5519 -79.6869 71° East 418 481 24,900 1,339 Climbing Washington Center
Thu 10:58:00 AM 35.5881 -79.5408 73° East 432 497 26,300 1,041 Climbing Washington Center
Thu 10:59:00 AM 35.6303 -79.3972 70° East 432 497 27,000 350 Climbing Washington Center
Thu 11:00:00 AM 35.6869 -79.2567 64° Northeast 444 511 27,000  Level Washington Center
Thu 11:01:00 AM 35.7906 -79.1411 42° Northeast 440 506 27,000  Level Washington Center
Thu 11:02:00 AM 35.9075 -79.0592 30° Northeast 451 519 27,000  Level Washington Center
Thu 11:03:00 AM 36.0206 -78.9767 31° Northeast 466 536 27,000  Level Washington Center
Thu 11:03:59 AM 36.1292 -78.8967 31° Northeast 461 531 27,000  Level Washington Center
Thu 11:04:59 AM 36.2317 -78.8186 32° Northeast 449 517 27,000  Level Washington Center
Thu 11:06:00 AM 36.3400 -78.7406 30° Northeast 443 510 27,000  Level Washington Center
Thu 11:07:00 AM 36.4422 -78.6644 31° Northeast 432 497 27,000  Level Washington Center
Thu 11:07:59 AM 36.5464 -78.5833 32° Northeast 432 497 27,000  Level Washington Center
Thu 11:09:00 AM 36.6506 -78.5044 31° Northeast 432 497 27,000  Level Washington Center
Thu 11:10:00 AM 36.7442 -78.4328 32° Northeast 432 497 27,000  Level Washington Center
Thu 11:11:00 AM 36.8483 -78.3536 31° Northeast 432 497 27,000  Level Washington Center
Thu 11:12:00 AM 36.9628 -78.2667 31° Northeast 437 503 27,000  Level Washington Center
Thu 11:13:00 AM 37.0542 -78.1944 32° Northeast 432 497 27,000  Level Washington Center
Thu 11:14:00 AM 37.1539 -78.1169 32° Northeast 432 497 27,000 -300 Level Washington Center
Thu 11:15:00 AM 37.2578 -78.0394 31° Northeast 427 491 26,400 -1,150 Descending Washington Center
Thu 11:16:00 AM 37.3594 -77.9617 31° Northeast 427 491 24,700 -1,700 Descending Washington Center
Thu 11:17:00 AM 37.4569 -77.8836 32° Northeast 427 491 23,000 -1,350 Descending Washington Center
Thu 11:18:00 AM 37.5542 -77.8133 30° Northeast 414 476 22,000 -500 Descending Washington Center
Thu 11:19:00 AM 37.6575 -77.7506 26° Northeast 407 468 22,000 -1,000 Level Washington Center
Thu 11:20:00 AM 37.7606 -77.6931 24° Northeast 397 457 20,000 -2,100 Descending Washington Center
Thu 11:21:00 AM 37.8575 -77.6353 25° Northeast 387 445 17,800 -2,350 Descending Washington Center
Thu 11:22:00 AM 37.9503 -77.5825 24° Northeast 380 437 15,300 -2,400 Descending Washington Center
Thu 11:23:00 AM 38.0386 -77.5322 24° Northeast 362 417 13,000 -2,150 Descending Washington Center
Thu 11:24:00 AM 38.1250 -77.4817 25° Northeast 343 395 11,000 -1,450 Descending Washington Center
Thu 11:25:00 AM 38.2092 -77.4336 24° Northeast 336 387 10,100 -550 Descending Washington Center
Thu 11:26:00 AM 38.2869 -77.3853 26° Northeast 318 366 9,900 -800 Descending Washington Center
Thu 11:27:00 AM 38.3689 -77.3553 16° North 313 360 8,500 -1,350 Descending Washington Center
Thu 11:28:00 AM 38.4542 -77.3600 358° North 297 342 7,200 -1,300 Descending Washington Center
Thu 11:29:00 AM 38.5356 -77.3647 357° North 297 342 5,900 -1,300 Descending Washington Center
Thu 11:30:00 AM 38.6189 -77.3667 359° North 297 342 4,600 -950 Descending Washington Center
Thu 11:31:00 AM 38.7003 -77.3633 North 291 335 4,000 -300 Descending Washington Center
Thu 11:32:00 AM 38.7900 -77.3600 North 291 335 4,000 46 Level Washington Center
Thu 11:33:10 AM 38.8833 -77.3500 North 294 338 4,100 -194 Climbing Potomac TRACON
Thu 11:34:04 AM 38.9500 -77.3500 360° North 265 305 3,600 -526 Descending Potomac TRACON
Thu 11:35:04 AM 39.0333 -77.3500 360° North 254 292 3,100 -300 Descending Potomac TRACON
Thu 11:36:04 AM 39.1000 -77.3500 360° North 257 296 3,000 -524 Descending Potomac TRACON
Thu 11:37:10 AM 39.1667 -77.3667 349° North 249 287 2,000 -450 Descending Potomac TRACON
Thu 11:38:04 AM 39.1333 -77.4167 229° Southwest 182 209 2,100 50 Climbing Potomac TRACON
Thu 11:39:10 AM 39.0833 -77.4333 195° South 164 189 2,100  Level Potomac TRACON
Thu 11:40:04 AM 39.0500 -77.4333 180° South 169 194 2,100  Level Potomac TRACON

Login

Don't have an account? Register now (free) for customized features, flight alerts, and more!